Time;durP1;ratioP1;P1;durP2;ratioP2;P2;SDS_P1;SDS_P2;PMS_P1;PMS_P2;Temp;Humidity;BMP_temperature;BMP_pressure;BME280_temperature;BME280_humidity;BME280_pressure;Samples;Min_cycle;Max_cycle;Signal;HPM_P1;HPM_P2
2021/05/22 00:00:20;;;;;;;3.75;1.00;;;;;;;3.47;83.90;90145.50;4938606;29;20026;-88
2021/05/22 00:02:45;;;;;;;2.38;0.65;;;;;;;3.50;82.97;90137.91;4938684;29;20385;-88
2021/05/22 00:05:11;;;;;;;1.80;0.70;;;;;;;3.45;83.91;90155.34;4954716;29;20038;-88
2021/05/22 00:07:36;;;;;;;1.42;0.52;;;;;;;3.53;84.51;90154.56;4938767;29;20030;-89
2021/05/22 00:10:04;;;;;;;2.80;0.82;;;;;;;3.52;84.46;90156.41;4938956;29;20377;-88
2021/05/22 00:12:30;;;;;;;3.05;0.63;;;;;;;3.50;83.92;90137.16;4938481;29;20122;-88
2021/05/22 00:14:56;;;;;;;1.42;0.55;;;;;;;3.60;83.66;90160.03;4938714;29;20050;-88
2021/05/22 00:17:21;;;;;;;1.42;0.55;;;;;;;3.44;84.56;90148.69;4938423;29;20400;-88
2021/05/22 00:19:46;;;;;;;2.05;0.60;;;;;;;3.59;83.34;90153.38;4938457;29;20051;-89
2021/05/22 00:22:12;;;;;;;3.60;0.57;;;;;;;3.55;83.69;90155.78;4938176;29;20019;-88
2021/05/22 00:24:37;;;;;;;2.85;0.88;;;;;;;3.54;83.29;90143.22;4922949;29;20417;-88
2021/05/22 00:27:03;;;;;;;1.27;0.60;;;;;;;3.67;83.04;90147.44;4954624;29;20023;-89
2021/05/22 00:29:28;;;;;;;2.58;0.63;;;;;;;3.65;83.66;90144.44;4938493;29;20023;-88
2021/05/22 00:31:54;;;;;;;2.90;0.68;;;;;;;3.57;83.73;90147.78;4937961;29;20028;-88
2021/05/22 00:34:19;;;;;;;4.30;0.50;;;;;;;3.60;83.95;90157.44;4954417;28;20034;-89
2021/05/22 00:36:44;;;;;;;3.78;0.60;;;;;;;3.63;84.16;90151.69;4937170;29;20023;-89
2021/05/22 00:39:10;;;;;;;2.72;0.65;;;;;;;3.67;83.25;90137.13;4946325;28;20012;-93
2021/05/22 00:41:35;;;;;;;1.45;0.50;;;;;;;3.56;83.32;90141.09;4966087;28;20027;-88
2021/05/22 00:44:01;;;;;;;2.53;0.52;;;;;;;3.69;83.55;90145.34;4954478;29;20026;-88
2021/05/22 00:46:26;;;;;;;0.85;0.60;;;;;;;3.71;83.61;90143.22;4938312;29;20067;-89
2021/05/22 00:48:51;;;;;;;2.80;0.70;;;;;;;3.67;83.45;90116.53;4938058;29;20019;-88
2021/05/22 00:51:17;;;;;;;3.92;0.63;;;;;;;3.74;83.51;90110.91;4970035;28;20019;-88
2021/05/22 00:53:43;;;;;;;2.83;0.70;;;;;;;3.71;83.75;90117.44;4954129;28;20543;-88
2021/05/22 00:56:08;;;;;;;4.95;1.08;;;;;;;3.70;83.58;90128.81;4937912;29;20031;-88
2021/05/22 00:58:35;;;;;;;1.95;0.60;;;;;;;3.79;83.38;90144.28;4922218;29;20020;-88
2021/05/22 01:01:00;;;;;;;1.33;0.50;;;;;;;3.77;83.13;90133.50;4953832;28;20444;-89
2021/05/22 01:03:28;;;;;;;3.97;0.68;;;;;;;3.65;83.94;90134.13;4941485;28;20014;-89
2021/05/22 01:06:21;;;;;;;3.28;0.80;;;;;;;3.74;83.91;90155.47;4957264;28;20038;-88
2021/05/22 01:08:48;;;;;;;2.10;0.68;;;;;;;3.75;83.79;90133.81;4974626;28;20023;-88
2021/05/22 01:11:21;;;;;;;2.35;0.80;;;;;;;3.70;85.00;90146.84;4972698;28;20031;-89
2021/05/22 01:13:48;;;;;;;3.78;0.77;;;;;;;3.75;83.94;90135.63;4956873;28;20022;-89
2021/05/22 01:16:14;;;;;;;2.38;0.82;;;;;;;3.71;84.33;90129.56;4956926;28;20027;-88
2021/05/22 01:18:40;;;;;;;1.77;0.50;;;;;;;3.76;84.46;90126.84;4957026;28;20014;-92
2021/05/22 01:21:05;;;;;;;2.90;0.77;;;;;;;3.78;84.54;90140.16;4956920;28;20073;-88
2021/05/22 01:23:40;;;;;;;1.77;0.50;;;;;;;3.76;84.41;90114.69;4972750;28;20018;-87
2021/05/22 01:26:05;;;;;;;;;;;;;;;3.77;84.92;90126.53;4957222;28;20018;-88
2021/05/22 01:28:34;;;;;;;2.70;0.88;;;;;;;3.75;85.10;90133.81;4972774;28;19913;-88
2021/05/22 01:30:59;;;;;;;1.90;0.60;;;;;;;3.68;84.58;90127.63;4972724;28;20034;-88
2021/05/22 01:33:24;;;;;;;3.08;0.70;;;;;;;3.72;85.40;90128.50;4956592;28;20023;-87
2021/05/22 01:35:50;;;;;;;2.65;0.80;;;;;;;3.65;85.45;90139.28;4972731;28;20511;-90
2021/05/22 01:38:15;;;;;;;3.45;0.80;;;;;;;3.61;85.46;90130.66;4956764;28;20019;-87
2021/05/22 01:40:41;;;;;;;1.48;0.63;;;;;;;3.67;85.70;90124.25;4956410;28;20046;-87
2021/05/22 01:43:07;;;;;;;2.38;0.80;;;;;;;3.73;85.66;90135.16;4956673;28;20384;-88
2021/05/22 01:45:36;;;;;;;3.20;0.70;;;;;;;3.72;85.79;90138.81;4956205;28;20030;-88
2021/05/22 01:48:02;;;;;;;4.25;0.90;;;;;;;3.66;86.10;90111.69;4956144;28;20030;-88
2021/05/22 01:50:29;;;;;;;3.72;0.70;;;;;;;3.78;85.87;90122.91;4955996;28;20015;-88
2021/05/22 01:52:55;;;;;;;2.97;0.95;;;;;;;3.71;85.80;90111.50;4970420;28;20015;-92
2021/05/22 01:55:21;;;;;;;5.25;0.88;;;;;;;3.77;85.70;90105.91;4998106;28;20018;-93
2021/05/22 01:57:46;;;;;;;5.47;1.20;;;;;;;3.64;86.55;90104.28;4979610;28;20042;-89
2021/05/22 02:00:13;;;;;;;3.40;0.90;;;;;;;3.74;86.66;90116.81;4956624;28;20535;-86
2021/05/22 02:02:44;;;;;;;5.07;1.10;;;;;;;3.72;86.50;90129.25;4980715;23;20125;-92
2021/05/22 02:05:10;;;;;;;4.35;1.00;;;;;;;3.75;86.26;90123.50;4927362;28;20097;-91
2021/05/22 02:07:36;;;;;;;3.15;0.90;;;;;;;3.72;87.47;90124.13;4926176;28;20023;-91
2021/05/22 02:10:02;;;;;;;5.60;1.10;;;;;;;3.73;86.49;90115.31;4941834;28;20034;-91
2021/05/22 02:12:28;;;;;;;3.15;0.82;;;;;;;3.74;86.43;90110.91;4951531;28;20022;-91
2021/05/22 02:14:53;;;;;;;4.47;1.10;;;;;;;3.70;87.08;90125.47;4941690;28;20018;-92
2021/05/22 02:17:19;;;;;;;2.22;1.00;;;;;;;3.81;86.45;90117.09;4942176;28;20023;-92
2021/05/22 02:19:45;;;;;;;2.78;0.93;;;;;;;3.90;86.19;90119.69;4942124;28;20026;-91
2021/05/22 02:22:11;;;;;;;7.30;1.48;;;;;;;3.82;86.65;90117.91;4941762;28;20362;-91
2021/05/22 02:24:37;;;;;;;3.65;1.10;;;;;;;3.89;85.42;90122.56;4941421;28;20484;-94
2021/05/22 02:27:02;;;;;;;6.00;1.13;;;;;;;3.79;86.75;90106.38;4941883;28;20019;-91
2021/05/22 02:29:28;;;;;;;3.67;1.02;;;;;;;3.89;85.73;90113.03;4941360;28;20389;-92
2021/05/22 02:31:53;;;;;;;4.63;1.08;;;;;;;3.96;85.34;90117.72;4941542;28;20380;-91
2021/05/22 02:34:25;;;;;;;6.55;1.20;;;;;;;3.97;84.70;90129.53;4941128;28;20400;-91
2021/05/22 02:36:51;;;;;;;3.63;1.10;;;;;;;3.98;85.23;90115.56;4942584;28;20023;-92
2021/05/22 02:39:16;;;;;;;2.75;1.10;;;;;;;3.98;85.16;90107.84;4941489;28;20026;-93
2021/05/22 02:41:42;;;;;;;5.95;1.10;;;;;;;3.95;85.01;90111.78;4941618;28;20433;-91
2021/05/22 02:44:07;;;;;;;3.53;1.00;;;;;;;4.03;84.73;90107.69;4941151;28;20392;-92
2021/05/22 02:46:36;;;;;;;3.67;0.75;;;;;;;3.95;85.37;90098.13;4941995;28;20019;-91
2021/05/22 02:49:01;;;;;;;3.45;1.10;;;;;;;3.93;85.51;90097.72;4942029;28;20110;-91
2021/05/22 02:51:27;;;;;;;3.97;1.00;;;;;;;3.86;86.08;90093.00;4941785;28;20023;-91
2021/05/22 02:53:52;;;;;;;7.28;1.25;;;;;;;3.77;86.56;90089.69;4941394;28;20410;-92
2021/05/22 02:56:18;;;;;;;3.45;1.00;;;;;;;3.87;85.36;90079.06;4941944;28;20472;-92
2021/05/22 02:58:44;;;;;;;5.25;1.30;;;;;;;3.92;85.31;90078.13;4942227;28;20408;-91
2021/05/22 03:01:10;;;;;;;6.97;1.25;;;;;;;3.92;83.67;90085.84;4944763;28;20134;-93
2021/05/22 03:03:35;;;;;;;4.50;1.27;;;;;;;3.97;82.84;90083.88;4945232;28;20543;-92
2021/05/22 03:06:05;;;;;;;5.38;1.20;;;;;;;3.99;82.29;90083.56;4944337;28;20026;-92
2021/05/22 03:08:30;;;;;;;6.22;1.75;;;;;;;3.97;83.06;90085.72;4945315;28;20027;-92
2021/05/22 03:10:56;;;;;;;4.60;1.23;;;;;;;4.01;82.31;90086.59;4944431;28;20026;-90
2021/05/22 03:13:21;;;;;;;6.65;1.17;;;;;;;3.96;81.86;90084.97;4945050;28;20023;-92
2021/05/22 03:15:47;;;;;;;5.53;1.20;;;;;;;3.92;83.38;90101.31;4944802;28;20026;-91
2021/05/22 03:18:12;;;;;;;4.60;1.15;;;;;;;4.01;82.01;90094.34;4945057;28;20025;-92
2021/05/22 03:20:37;;;;;;;4.68;0.77;;;;;;;4.02;82.63;90101.00;4944302;28;20050;-93
2021/05/22 03:23:03;;;;;;;3.10;0.70;;;;;;;3.92;81.29;90101.31;4944584;28;20034;-92
2021/05/22 03:25:28;;;;;;;3.78;0.90;;;;;;;3.94;81.70;90099.97;4944706;28;20027;-91
2021/05/22 03:27:54;;;;;;;4.07;0.80;;;;;;;3.96;81.03;90084.97;4944833;28;20396;-91
2021/05/22 03:30:20;;;;;;;5.57;0.90;;;;;;;3.95;81.07;90090.41;4959485;28;20516;-91
2021/05/22 03:32:45;;;;;;;3.60;0.68;;;;;;;3.84;78.88;90088.16;4960160;28;20345;-91
2021/05/22 03:35:11;;;;;;;5.43;0.77;;;;;;;3.93;79.50;90097.72;4943549;28;20023;-90
2021/05/22 03:37:36;;;;;;;7.32;1.10;;;;;;;3.90;80.23;90088.00;4944558;28;20500;-91
2021/05/22 03:40:03;;;;;;;6.35;1.02;;;;;;;3.87;80.18;90086.03;4960075;28;20038;-90
2021/05/22 03:42:28;;;;;;;7.53;0.90;;;;;;;3.84;80.00;90085.56;4960278;28;20113;-90
2021/05/22 03:44:53;;;;;;;3.58;0.93;;;;;;;3.81;79.77;90088.75;4943438;28;20034;-91
2021/05/22 03:47:19;;;;;;;11.38;2.15;;;;;;;3.78;79.95;90091.97;4943922;28;20030;-91
2021/05/22 03:49:45;;;;;;;6.30;1.02;;;;;;;3.86;79.39;90090.44;4943337;28;20388;-92
2021/05/22 03:52:10;;;;;;;5.07;0.82;;;;;;;3.88;77.64;90092.69;4943430;28;20408;-91
2021/05/22 03:54:35;;;;;;;5.95;1.05;;;;;;;3.90;78.99;90098.31;4943419;28;20038;-92
2021/05/22 03:57:01;;;;;;;5.03;1.20;;;;;;;3.92;78.93;90091.78;4943246;28;20026;-90
2021/05/22 03:59:26;;;;;;;5.35;0.70;;;;;;;3.89;79.47;90091.63;4942980;28;20034;-91
2021/05/22 04:01:52;;;;;;;2.97;0.77;;;;;;;3.89;79.29;90101.94;4943213;28;20034;-90
2021/05/22 04:04:17;;;;;;;8.00;2.00;;;;;;;3.88;78.11;90096.03;4943022;28;20491;-91
2021/05/22 04:06:42;;;;;;;4.60;0.98;;;;;;;3.89;78.24;90100.13;4943472;28;20453;-90
2021/05/22 04:09:08;;;;;;;6.70;0.98;;;;;;;3.88;78.45;90105.59;4942979;28;20053;-91
2021/05/22 04:11:34;;;;;;;8.57;1.35;;;;;;;3.86;78.54;90097.41;4943035;28;20535;-91
2021/05/22 04:13:59;;;;;;;8.52;1.00;;;;;;;3.82;78.40;90098.03;4943022;28;20038;-91
2021/05/22 04:16:25;;;;;;;3.13;0.80;;;;;;;3.81;78.97;90093.91;4943175;28;20019;-90
2021/05/22 04:18:50;;;;;;;3.83;0.95;;;;;;;3.69;80.54;90088.63;4942845;28;20022;-91
2021/05/22 04:21:15;;;;;;;7.95;0.85;;;;;;;3.82;78.79;90092.88;4943529;28;20029;-91
2021/05/22 04:23:41;;;;;;;6.18;0.93;;;;;;;3.87;78.48;90093.78;4943483;28;20026;-91
2021/05/22 04:26:07;;;;;;;4.72;0.80;;;;;;;3.92;78.26;90102.09;4943104;28;20031;-91
2021/05/22 04:28:32;;;;;;;3.30;0.80;;;;;;;3.89;77.29;90099.34;4942826;28;20477;-91
2021/05/22 04:30:57;;;;;;;6.88;0.75;;;;;;;3.85;77.75;90091.47;4942614;28;20118;-91
2021/05/22 04:33:23;;;;;;;3.88;0.90;;;;;;;3.93;76.55;90092.53;4942899;28;20030;-91
2021/05/22 04:35:48;;;;;;;1.73;0.60;;;;;;;3.94;75.80;90084.50;4942784;28;20077;-91
2021/05/22 04:38:14;;;;;;;7.45;1.48;;;;;;;3.76;78.01;90094.09;4942448;28;20030;-91
2021/05/22 04:40:40;;;;;;;6.78;0.90;;;;;;;3.88;77.59;90092.69;4950107;28;20018;-93
2021/05/22 04:43:05;;;;;;;2.75;0.85;;;;;;;3.86;78.40;90093.00;4966424;28;20086;-92
2021/05/22 04:45:31;;;;;;;7.45;1.15;;;;;;;3.87;77.24;90083.47;4949388;28;20022;-91
2021/05/22 04:47:56;;;;;;;8.23;1.27;;;;;;;4.00;77.42;90087.69;4958897;28;20106;-90
2021/05/22 04:50:22;;;;;;;5.20;1.08;;;;;;;3.94;77.15;90094.06;4957860;28;20030;-90
2021/05/22 04:52:47;;;;;;;3.13;0.80;;;;;;;3.98;76.57;90095.72;4942474;28;20031;-90
2021/05/22 04:55:13;;;;;;;4.55;0.80;;;;;;;3.99;74.66;90088.72;4958120;28;20022;-91
2021/05/22 04:57:38;;;;;;;6.57;1.27;;;;;;;3.98;75.79;90075.06;4942318;28;20026;-90
2021/05/22 05:00:06;;;;;;;10.05;1.30;;;;;;;3.94;76.57;90078.59;4941775;28;20026;-90
2021/05/22 05:02:32;;;;;;;6.90;1.38;;;;;;;4.00;75.56;90087.69;4942244;28;20113;-90
2021/05/22 05:04:57;;;;;;;7.22;0.98;;;;;;;4.03;76.01;90092.22;4942092;28;20081;-90
2021/05/22 05:07:23;;;;;;;3.65;0.82;;;;;;;3.94;77.49;90094.06;4942218;28;20019;-89
2021/05/22 05:09:49;;;;;;;5.05;0.90;;;;;;;4.02;76.88;90085.53;4942085;28;20034;-90
2021/05/22 05:12:15;;;;;;;7.05;1.10;;;;;;;4.11;76.88;90088.84;4941724;28;20473;-91
2021/05/22 05:14:40;;;;;;;3.47;0.73;;;;;;;4.02;75.60;90090.69;4941669;28;20018;-90
2021/05/22 05:17:06;;;;;;;7.05;1.05;;;;;;;4.08;76.15;90092.03;4941497;28;20022;-90
2021/05/22 05:19:31;;;;;;;5.35;0.80;;;;;;;4.09;76.39;90088.41;4941353;28;20593;-91
2021/05/22 05:21:57;;;;;;;5.00;1.02;;;;;;;4.07;76.40;90088.72;4940767;28;20018;-91
2021/05/22 05:24:23;;;;;;;4.40;0.75;;;;;;;4.16;75.67;90098.25;4957303;28;20495;-91
2021/05/22 05:26:48;;;;;;;3.63;0.85;;;;;;;4.14;76.44;90097.81;4973781;28;20091;-90
2021/05/22 05:29:14;;;;;;;6.80;0.90;;;;;;;4.22;76.80;90090.03;4957781;28;20022;-89
2021/05/22 05:31:39;;;;;;;3.17;0.70;;;;;;;4.43;75.75;90102.25;4957446;28;20042;-91
2021/05/22 05:34:04;;;;;;;2.22;0.70;;;;;;;4.42;75.13;90086.03;4974442;28;20030;-91
2021/05/22 05:36:30;;;;;;;5.50;0.80;;;;;;;4.60;75.45;90114.34;4957417;28;20031;-89
2021/05/22 05:38:55;;;;;;;4.32;0.73;;;;;;;4.47;75.80;90116.03;4957048;28;20022;-90
2021/05/22 05:41:21;;;;;;;4.68;0.70;;;;;;;4.40;75.27;90110.59;4956809;28;20073;-91
2021/05/22 05:43:46;;;;;;;5.75;0.80;;;;;;;4.50;74.30;90115.44;4973400;28;20026;-91
2021/05/22 05:46:11;;;;;;;6.93;1.48;;;;;;;4.48;74.98;90107.22;4961580;28;20038;-89
2021/05/22 05:48:37;;;;;;;4.45;0.80;;;;;;;4.54;75.15;90117.06;4957380;28;20413;-91
2021/05/22 05:51:02;;;;;;;4.30;0.88;;;;;;;4.61;74.17;90116.59;4957116;28;20074;-90
2021/05/22 05:53:28;;;;;;;4.82;0.80;;;;;;;4.61;73.94;90111.44;4957294;28;20046;-91
2021/05/22 05:55:53;;;;;;;2.78;0.82;;;;;;;4.69;73.30;90120.94;4956948;28;20644;-89
2021/05/22 05:58:19;;;;;;;5.97;1.00;;;;;;;4.63;74.54;90119.63;4956921;28;20022;-92
2021/05/22 06:00:44;;;;;;;6.90;1.17;;;;;;;4.65;75.09;90106.41;4972875;28;20086;-91
2021/05/22 06:03:10;;;;;;;3.70;0.80;;;;;;;4.65;76.68;90122.63;4958965;28;20077;-91
2021/05/22 06:05:35;;;;;;;7.03;0.80;;;;;;;4.70;76.08;90122.47;4957172;28;20139;-90
2021/05/22 06:08:01;;;;;;;3.65;0.70;;;;;;;4.72;76.35;90133.22;4956880;28;20030;-91
2021/05/22 06:10:26;;;;;;;5.60;0.93;;;;;;;4.82;76.56;90133.97;4956724;28;20034;-91
2021/05/22 06:12:52;;;;;;;3.60;0.88;;;;;;;4.94;75.83;90142.53;4956868;28;20408;-91
2021/05/22 06:17:43;;;;;;;9.00;1.38;;;;;;;4.95;74.41;90136.31;4973385;28;20030;-90
2021/05/22 06:20:09;;;;;;;8.88;1.55;;;;;;;4.87;75.34;90138.94;4972977;28;20026;-90
2021/05/22 06:22:34;;;;;;;1.98;0.70;;;;;;;4.85;74.23;90148.84;4956917;28;20483;-89
2021/05/22 06:25:00;;;;;;;4.30;0.80;;;;;;;4.80;75.04;90154.91;4956908;28;20503;-91
2021/05/22 06:27:25;;;;;;;1.42;0.75;;;;;;;4.77;74.71;90134.88;4958517;28;20057;-91
2021/05/22 06:29:51;;;;;;;3.92;1.02;;;;;;;4.76;75.45;90148.84;4972710;28;20388;-91
2021/05/22 06:32:16;;;;;;;4.07;0.90;;;;;;;4.85;73.98;90138.50;4956748;28;20030;-91
2021/05/22 06:34:42;;;;;;;2.40;0.57;;;;;;;4.83;72.59;90138.06;4960364;28;20034;-89
2021/05/22 06:37:07;;;;;;;3.40;0.70;;;;;;;4.92;72.75;90128.44;4976711;28;20023;-90
2021/05/22 06:39:33;;;;;;;4.63;0.88;;;;;;;4.90;70.75;90128.75;4960248;28;20027;-90
2021/05/22 06:41:58;;;;;;;5.18;0.90;;;;;;;4.91;72.11;90129.50;4976028;28;20796;-90
2021/05/22 06:44:33;;;;;;;4.40;1.48;;;;;;;5.07;71.78;90127.91;4976483;28;20460;-90
2021/05/22 06:46:58;;;;;;;;;;;;;;;5.21;71.68;90131.00;4962029;28;20106;-91
2021/05/22 06:49:23;;;;;;;2.67;0.63;;;;;;;5.06;70.58;90123.81;4975977;28;19997;-90
2021/05/22 06:51:49;;;;;;;4.45;0.80;;;;;;;5.13;71.49;90137.00;4975772;28;20027;-91
2021/05/22 06:54:15;;;;;;;2.92;0.60;;;;;;;5.27;72.57;90134.91;4960156;28;20441;-90
2021/05/22 06:56:40;;;;;;;3.17;0.68;;;;;;;5.31;70.03;90131.72;4959965;28;20027;-90
2021/05/22 06:59:05;;;;;;;3.75;0.73;;;;;;;5.36;70.72;90141.84;4960182;28;20023;-90
2021/05/22 07:01:31;;;;;;;5.60;1.23;;;;;;;5.40;69.18;90135.72;4975548;28;20477;-90
2021/05/22 07:03:57;;;;;;;5.25;1.42;;;;;;;5.42;68.34;90125.09;4959752;28;20035;-90
2021/05/22 07:06:24;;;;;;;8.02;0.90;;;;;;;5.46;69.54;90142.22;4975740;28;20382;-90
2021/05/22 07:08:56;;;;;;;3.65;0.88;;;;;;;5.57;69.05;90140.03;4975805;28;20029;-90
2021/05/22 07:11:25;;;;;;;3.95;0.68;;;;;;;5.36;68.69;90140.03;4960487;28;20027;-90
2021/05/22 07:13:51;;;;;;;2.58;0.50;;;;;;;5.33;69.14;90134.72;4959491;28;20027;-90
2021/05/22 07:16:16;;;;;;;4.85;0.80;;;;;;;5.23;69.89;90134.03;4975861;28;20026;-90
2021/05/22 07:18:42;;;;;;;4.70;0.68;;;;;;;5.38;69.74;90157.81;4975811;28;20035;-90
2021/05/22 07:21:07;;;;;;;7.60;0.90;;;;;;;5.48;68.59;90145.28;4959879;28;20019;-90
2021/05/22 07:23:33;;;;;;;3.97;0.65;;;;;;;5.64;68.54;90142.88;4959934;28;20023;-90
2021/05/22 07:25:58;;;;;;;3.90;0.70;;;;;;;5.73;69.11;90140.97;4959630;28;20027;-90
2021/05/22 07:28:24;;;;;;;5.53;0.65;;;;;;;5.94;68.77;90145.41;4959345;28;20027;-90
2021/05/22 07:30:49;;;;;;;4.75;0.90;;;;;;;5.87;68.71;90139.97;4975196;28;20027;-89
2021/05/22 07:33:16;;;;;;;4.72;0.70;;;;;;;5.83;68.03;90141.66;4959429;28;20053;-90
2021/05/22 07:35:41;;;;;;;5.35;0.60;;;;;;;5.66;68.90;90143.31;4959330;28;20389;-90
2021/05/22 07:38:07;;;;;;;3.38;0.77;;;;;;;5.62;70.08;90146.81;4959366;28;20121;-91
2021/05/22 07:40:32;;;;;;;4.43;0.70;;;;;;;5.76;69.40;90149.94;4958705;28;20117;-90
2021/05/22 07:42:58;;;;;;;4.03;0.80;;;;;;;5.93;67.31;90131.69;4959045;28;20091;-90
2021/05/22 07:45:23;;;;;;;5.85;0.93;;;;;;;5.90;66.63;90147.06;4958306;28;20472;-90
2021/05/22 07:47:49;;;;;;;3.00;0.70;;;;;;;5.88;68.43;90139.63;4958660;28;20088;-90
2021/05/22 07:50:14;;;;;;;5.28;0.85;;;;;;;6.02;68.72;90148.97;4958308;28;20023;-90
2021/05/22 07:52:40;;;;;;;2.78;0.63;;;;;;;6.02;67.33;90141.97;4974731;28;20053;-91
2021/05/22 07:55:07;;;;;;;2.53;0.57;;;;;;;6.18;67.99;90150.66;4974843;28;20022;-91
2021/05/22 07:57:33;;;;;;;10.63;0.90;;;;;;;6.09;66.40;90147.38;4958721;28;20034;-90
2021/05/22 07:59:58;;;;;;;2.67;0.70;;;;;;;6.14;67.07;90143.84;4974718;28;20034;-90
2021/05/22 08:02:24;;;;;;;2.15;0.50;;;;;;;6.21;67.85;90139.66;5005535;23;20034;-87
2021/05/22 08:04:49;;;;;;;5.05;0.77;;;;;;;6.33;65.30;90135.59;4981286;28;20352;-88
2021/05/22 08:07:15;;;;;;;2.55;0.60;;;;;;;6.26;66.61;90145.72;4981927;28;20030;-87
2021/05/22 08:09:40;;;;;;;2.90;0.60;;;;;;;6.35;66.40;90148.97;4980748;28;20383;-87
2021/05/22 08:12:06;;;;;;;3.65;0.63;;;;;;;6.53;66.39;90147.69;4980371;28;20048;-87
2021/05/22 08:14:31;;;;;;;1.98;0.45;;;;;;;6.31;64.93;90133.31;4981163;28;20026;-89
2021/05/22 08:16:57;;;;;;;2.10;1.10;;;;;;;6.31;65.50;90141.09;4980900;28;20025;-87
2021/05/22 08:19:22;;;;;;;2.40;0.50;;;;;;;6.23;66.11;90155.63;4981160;28;20076;-87
2021/05/22 08:21:48;;;;;;;3.97;0.77;;;;;;;6.31;67.89;90133.31;4980638;28;20018;-87
2021/05/22 08:24:13;;;;;;;1.58;0.63;;;;;;;6.34;65.59;90134.53;4981313;28;20388;-86
2021/05/22 08:26:39;;;;;;;9.15;0.82;;;;;;;6.42;66.44;90149.19;4981325;28;20091;-87
2021/05/22 08:29:05;;;;;;;3.65;0.70;;;;;;;6.42;64.98;90137.00;4997644;28;20026;-87
2021/05/22 08:31:32;;;;;;;6.20;0.80;;;;;;;6.44;64.36;90126.34;4996728;28;20033;-88
2021/05/22 08:33:57;;;;;;;2.45;0.60;;;;;;;6.48;65.05;90140.16;4981163;28;20064;-87
2021/05/22 08:36:23;;;;;;;3.95;0.70;;;;;;;6.48;64.05;90140.16;4997381;28;20018;-86
2021/05/22 08:38:48;;;;;;;5.25;0.93;;;;;;;6.58;65.08;90144.91;4996802;28;20022;-87
2021/05/22 08:41:14;;;;;;;4.97;0.60;;;;;;;6.63;64.89;90131.75;4980026;28;20026;-86
2021/05/22 08:43:39;;;;;;;2.17;0.40;;;;;;;6.71;64.13;90143.09;4996687;28;20026;-88
2021/05/22 08:46:09;;;;;;;3.28;0.80;;;;;;;6.86;64.38;90144.31;4980520;28;20028;-87
2021/05/22 08:48:35;;;;;;;2.25;0.50;;;;;;;6.85;64.27;90145.38;4980645;28;20025;-87
2021/05/22 08:51:01;;;;;;;4.57;0.82;;;;;;;6.86;64.54;90139.13;4980110;28;20021;-87
2021/05/22 08:53:26;;;;;;;4.82;0.70;;;;;;;7.04;62.32;90150.78;4979958;28;20067;-88
2021/05/22 08:55:52;;;;;;;3.65;0.52;;;;;;;6.84;64.76;90149.78;4979457;28;20022;-87
2021/05/22 08:58:17;;;;;;;3.63;0.80;;;;;;;6.91;64.73;90150.00;4979442;28;20022;-87
2021/05/22 09:00:42;;;;;;;4.55;0.70;;;;;;;6.90;64.65;90130.38;4979688;28;20018;-87
2021/05/22 09:03:11;;;;;;;4.25;0.90;;;;;;;7.01;65.75;90138.47;4980022;28;20375;-87
2021/05/22 09:05:38;;;;;;;5.15;0.70;;;;;;;6.92;64.56;90145.56;4979881;28;20022;-87
2021/05/22 09:08:07;;;;;;;2.90;0.60;;;;;;;6.94;64.55;90153.78;4996114;28;20088;-87
2021/05/22 09:10:37;;;;;;;4.90;0.68;;;;;;;6.94;64.56;90138.25;4979856;28;20049;-87
2021/05/22 09:13:04;;;;;;;3.00;0.50;;;;;;;7.14;63.78;90139.97;4996053;28;20214;-87
2021/05/22 09:15:31;;;;;;;2.80;0.50;;;;;;;7.03;61.87;90141.50;4995931;28;20053;-87
2021/05/22 09:17:58;;;;;;;4.07;0.70;;;;;;;6.93;60.82;90134.16;4979874;28;20418;-87
2021/05/22 09:20:28;;;;;;;2.63;0.47;;;;;;;7.03;60.99;90148.50;4979635;28;20039;-87
2021/05/22 09:23:03;;;;;;;1.33;0.40;;;;;;;7.06;60.08;90158.22;4995940;28;20018;-87
2021/05/22 09:25:29;;;;;;;1.58;0.40;;;;;;;7.18;60.85;90135.66;5012024;28;20030;-87
2021/05/22 09:27:55;;;;;;;1.25;0.45;;;;;;;7.40;60.44;90154.41;4979727;28;20018;-88
2021/05/22 09:30:22;;;;;;;2.33;0.47;;;;;;;7.35;58.12;90159.81;4995937;28;20025;-87
2021/05/22 09:32:47;;;;;;;2.97;0.40;;;;;;;7.31;58.14;90177.84;4979396;28;20056;-88
2021/05/22 09:35:13;;;;;;;2.60;0.50;;;;;;;7.46;59.11;90166.09;4979203;28;20026;-87
2021/05/22 09:37:45;;;;;;;2.25;0.40;;;;;;;7.60;58.99;90181.28;4979475;28;20033;-88
2021/05/22 09:40:13;;;;;;;2.03;0.35;;;;;;;7.66;59.54;90174.78;5012533;28;20049;-87
2021/05/22 09:42:41;;;;;;;2.00;0.50;;;;;;;7.99;60.21;90187.59;4979566;28;20075;-87
2021/05/22 09:45:20;;;;;;;4.50;0.47;;;;;;;7.91;58.00;90191.03;4979454;28;20121;-87
2021/05/22 09:47:45;;;;;;;5.45;0.50;;;;;;;7.97;57.45;90181.19;5011792;28;20018;-87
2021/05/22 09:50:25;;;;;;;4.65;0.77;;;;;;;8.04;58.60;90168.44;4979058;28;20044;-87
2021/05/22 09:52:52;;;;;;;2.63;0.50;;;;;;;8.24;59.16;90182.31;4979182;28;20014;-88
2021/05/22 09:55:17;;;;;;;5.18;0.70;;;;;;;8.33;57.81;90175.13;4996064;28;20100;-88
2021/05/22 09:57:44;;;;;;;2.45;0.70;;;;;;;8.39;56.79;90179.03;4995457;28;20484;-88
2021/05/22 10:00:16;;;;;;;3.35;0.63;;;;;;;8.48;58.23;90187.44;4979374;28;20022;-91
2021/05/22 10:02:52;;;;;;;5.35;0.68;;;;;;;8.42;56.04;90186.16;5011281;28;20049;-88
2021/05/22 10:05:29;;;;;;;3.22;0.70;;;;;;;8.58;57.63;90192.13;4980845;28;20482;-88
2021/05/22 10:07:55;;;;;;;2.63;0.47;;;;;;;8.69;56.29;90178.66;4996993;28;20064;-87
2021/05/22 10:10:21;;;;;;;5.95;0.52;;;;;;;8.81;56.72;90189.72;4984371;28;20026;-88
2021/05/22 10:12:47;;;;;;;1.15;0.40;;;;;;;8.92;54.77;90189.25;4983985;28;20018;-87
2021/05/22 10:15:14;;;;;;;1.58;0.50;;;;;;;8.75;54.15;90193.66;4983846;28;20042;-88
2021/05/22 10:17:39;;;;;;;2.60;0.40;;;;;;;8.68;54.34;90203.13;4984002;28;20056;-88
2021/05/22 10:20:06;;;;;;;5.25;0.95;;;;;;;8.76;55.35;90202.97;4982771;28;20096;-88
2021/05/22 10:22:35;;;;;;;1.50;0.40;;;;;;;8.79;55.39;90201.53;4986364;28;20013;-88
2021/05/22 10:25:05;;;;;;;1.60;0.30;;;;;;;8.59;51.95;90193.66;5023548;28;20022;-92
2021/05/22 10:27:32;;;;;;;3.13;0.50;;;;;;;8.70;53.21;90187.97;5008927;28;20030;-90
2021/05/22 10:29:57;;;;;;;2.85;0.55;;;;;;;8.74;54.05;90204.38;4995065;28;20022;-86
2021/05/22 10:32:25;;;;;;;2.58;0.50;;;;;;;8.89;53.20;90203.66;4999366;28;20025;-88
2021/05/22 10:34:50;;;;;;;2.33;0.40;;;;;;;9.07;53.38;90202.22;4999335;28;20024;-88
2021/05/22 10:37:43;;;;;;;3.03;0.50;;;;;;;9.21;53.62;90221.84;4998660;28;20472;-87
2021/05/22 10:40:09;;;;;;;1.75;0.45;;;;;;;9.34;51.44;90210.28;4999110;28;20022;-88
2021/05/22 10:42:35;;;;;;;3.35;0.60;;;;;;;9.16;51.84;90209.13;5001757;28;20032;-87
2021/05/22 10:45:25;;;;;;;3.58;0.45;;;;;;;9.52;52.58;90214.03;5014963;28;20050;-87
2021/05/22 10:47:51;;;;;;;1.75;0.50;;;;;;;9.42;53.50;90200.78;5015286;28;20033;-87
2021/05/22 10:50:35;;;;;;;2.05;0.63;;;;;;;9.38;50.27;90190.31;4981970;28;20026;-88
2021/05/22 10:53:16;;;;;;;2.38;0.40;;;;;;;9.62;52.93;90210.16;4998085;28;20079;-87
2021/05/22 10:55:41;;;;;;;3.00;0.60;;;;;;;9.80;51.80;90200.91;5014693;28;20083;-87
2021/05/22 10:58:06;;;;;;;3.03;0.60;;;;;;;10.10;52.58;90213.38;4983218;28;20022;-88
2021/05/22 11:00:32;;;;;;;3.38;0.60;;;;;;;10.14;51.25;90210.84;5014230;28;20022;-87
2021/05/22 11:03:17;;;;;;;1.88;0.50;;;;;;;10.41;51.32;90220.38;4981616;28;20029;-88
2021/05/22 11:05:43;;;;;;;2.15;0.45;;;;;;;10.51;52.62;90204.19;5014662;28;20360;-87
2021/05/22 11:08:09;;;;;;;2.42;0.47;;;;;;;10.31;50.28;90220.91;4982315;28;20068;-87
2021/05/22 11:10:35;;;;;;;4.55;0.93;;;;;;;10.18;50.33;90222.88;5015679;28;20376;-87
2021/05/22 11:13:00;;;;;;;3.75;0.40;;;;;;;10.24;52.12;90207.72;5014209;28;20025;-87
2021/05/22 11:15:43;;;;;;;5.28;0.70;;;;;;;10.28;48.75;90219.75;4981509;28;20041;-87
2021/05/22 11:18:08;;;;;;;3.70;0.73;;;;;;;10.45;47.47;90213.38;4997836;28;20113;-87
2021/05/22 11:20:35;;;;;;;3.72;0.50;;;;;;;10.24;47.31;90215.53;4980448;28;20114;-87
2021/05/22 11:23:01;;;;;;;3.78;0.50;;;;;;;10.01;47.46;90220.66;4981529;28;20022;-87
2021/05/22 11:25:43;;;;;;;1.58;0.40;;;;;;;10.25;47.25;90222.25;4981892;28;20017;-88
2021/05/22 11:28:10;;;;;;;2.15;0.40;;;;;;;10.29;48.54;90223.13;4997845;28;20072;-88
2021/05/22 11:30:35;;;;;;;1.75;0.43;;;;;;;10.37;47.02;90224.75;4981752;28;20022;-86
2021/05/22 11:33:05;;;;;;;3.92;0.70;;;;;;;10.50;47.72;90223.53;5013747;28;20121;-88
2021/05/22 11:35:37;;;;;;;4.55;0.50;;;;;;;10.31;48.89;90217.56;4981700;28;20021;-89
2021/05/22 11:38:14;;;;;;;2.50;0.50;;;;;;;10.69;49.32;90216.78;5014201;28;20467;-88
2021/05/22 11:40:43;;;;;;;3.25;0.70;;;;;;;10.86;48.87;90221.56;5013440;28;20104;-87